Time;durP1;ratioP1;P1;durP2;ratioP2;P2;SDS_P1;SDS_P2;PMS_P1;PMS_P2;Temp;Humidity;BMP_temperature;BMP_pressure;BME280_temperature;BME280_humidity;BME280_pressure;Samples;Min_cycle;Max_cycle;Signal;HPM_P1;HPM_P2
2023/09/24 00:01:49;;;;;;;0.50;0.50;;;8.00;99.90;;;;;;5094741;27;20199;-72
2023/09/24 00:04:15;;;;;;;0.60;0.60;;;8.00;99.90;;;;;;5113165;27;20329;-72
2023/09/24 00:06:40;;;;;;;0.40;0.40;;;7.90;99.90;;;;;;5114064;27;20218;-73
2023/09/24 00:09:07;;;;;;;0.50;0.50;;;7.90;99.90;;;;;;5110728;27;20191;-73
2023/09/24 00:11:32;;;;;;;0.60;0.60;;;7.90;99.90;;;;;;5113747;27;20200;-73
2023/09/24 00:13:58;;;;;;;0.60;0.60;;;7.90;99.90;;;;;;5110221;27;20203;-74
2023/09/24 00:16:24;;;;;;;0.60;0.60;;;7.90;99.90;;;;;;5112765;27;20203;-73
2023/09/24 00:18:49;;;;;;;0.60;0.60;;;7.90;99.90;;;;;;5110525;27;20236;-72
2023/09/24 00:21:16;;;;;;;0.70;0.70;;;8.00;99.90;;;;;;5112463;27;20696;-72
2023/09/24 00:23:43;;;;;;;0.63;0.63;;;8.00;99.90;;;;;;5114939;27;20194;-72
2023/09/24 00:26:08;;;;;;;0.80;0.80;;;8.00;99.90;;;;;;5113461;27;20578;-72
2023/09/24 00:28:34;;;;;;;0.70;0.70;;;8.10;99.90;;;;;;5116129;27;20190;-72
2023/09/24 00:30:59;;;;;;;0.70;0.70;;;8.10;99.90;;;;;;5111310;27;20223;-72
2023/09/24 00:33:25;;;;;;;0.60;0.60;;;8.20;99.90;;;;;;5095311;27;20218;-73
2023/09/24 00:35:52;;;;;;;0.70;0.70;;;8.30;99.90;;;;;;5112068;28;20203;-73
2023/09/24 00:38:18;;;;;;;0.60;0.60;;;8.30;99.90;;;;;;5113499;27;20666;-72
2023/09/24 00:40:44;;;;;;;0.70;0.70;;;8.30;99.90;;;;;;5112859;28;20203;-72
2023/09/24 00:43:33;;;;;;;0.60;0.60;;;8.30;99.90;;;;;;5112503;28;20195;-71
2023/09/24 00:46:14;;;;;;;2.45;1.80;;;8.40;99.90;;;;;;5109196;28;20219;-73
2023/09/24 00:48:40;;;;;;;0.60;0.60;;;8.40;99.90;;;;;;5107398;28;20674;-73
2023/09/24 00:51:27;;;;;;;0.60;0.60;;;8.30;99.90;;;;;;5091469;28;20513;-74
2023/09/24 00:53:54;;;;;;;0.60;0.60;;;8.30;99.90;;;;;;5090335;28;20693;-73
2023/09/24 00:56:23;;;;;;;0.60;0.60;;;8.20;99.90;;;;;;5109789;28;20191;-73
2023/09/24 00:58:52;;;;;;;0.70;0.70;;;8.20;99.90;;;;;;5108425;28;20196;-72
2023/09/24 01:01:24;;;;;;;0.60;0.60;;;8.30;99.90;;;;;;5109527;28;20191;-71
2023/09/24 01:03:53;;;;;;;0.70;0.70;;;8.30;99.90;;;;;;5109587;28;20659;-72
2023/09/24 01:06:19;;;;;;;0.80;0.80;;;8.40;99.90;;;;;;5092521;28;20206;-72
2023/09/24 01:08:45;;;;;;;0.60;0.60;;;8.50;99.90;;;;;;5106756;28;20281;-72
2023/09/24 01:11:12;;;;;;;0.60;0.60;;;8.50;99.90;;;;;;5091971;28;20784;-72
2023/09/24 01:13:43;;;;;;;0.68;0.68;;;8.50;99.90;;;;;;5106898;28;20253;-72
2023/09/24 01:16:09;;;;;;;0.60;0.60;;;8.60;99.90;;;;;;5090659;28;20231;-73
2023/09/24 01:18:37;;;;;;;0.68;0.68;;;8.60;99.90;;;;;;5108639;28;20203;-72
2023/09/24 01:21:17;;;;;;;0.50;0.50;;;8.90;99.90;;;;;;5108395;28;20215;-72
2023/09/24 01:23:45;;;;;;;5.75;1.23;;;9.10;99.90;;;;;;5108050;28;20191;-72
2023/09/24 01:26:18;;;;;;;0.60;0.60;;;9.10;99.90;;;;;;5090742;28;20208;-72
2023/09/24 01:28:44;;;;;;;0.60;0.60;;;9.00;99.90;;;;;;5087911;28;20233;-72
2023/09/24 01:31:11;;;;;;;0.68;0.68;;;9.00;99.90;;;;;;5106026;28;20585;-72
2023/09/24 01:33:39;;;;;;;0.60;0.60;;;9.10;99.90;;;;;;5109215;28;20249;-72
2023/09/24 01:36:07;;;;;;;0.50;0.50;;;9.10;99.90;;;;;;5110041;28;20278;-72
2023/09/24 01:38:33;;;;;;;0.60;0.60;;;9.00;99.90;;;;;;5108086;28;20655;-72
2023/09/24 01:41:00;;;;;;;0.60;0.60;;;9.00;99.90;;;;;;5110384;28;20206;-72
2023/09/24 01:43:26;;;;;;;0.50;0.50;;;8.90;99.90;;;;;;5109070;28;20545;-72
2023/09/24 01:45:52;;;;;;;0.60;0.60;;;8.90;99.90;;;;;;5123964;27;20231;-72
2023/09/24 01:48:17;;;;;;;0.60;0.60;;;8.90;99.90;;;;;;5111203;27;20209;-72
2023/09/24 01:50:43;;;;;;;0.73;0.73;;;8.90;99.90;;;;;;5131722;27;20198;-72
2023/09/24 01:53:09;;;;;;;0.60;0.60;;;8.80;99.90;;;;;;5131242;27;20187;-72
2023/09/24 01:55:39;;;;;;;0.60;0.60;;;8.70;99.90;;;;;;5130992;27;20223;-72
2023/09/24 01:58:05;;;;;;;0.50;0.50;;;8.60;99.90;;;;;;5130556;27;20202;-72
2023/09/24 02:00:31;;;;;;;0.60;0.60;;;8.50;99.90;;;;;;5131154;27;20207;-72
2023/09/24 02:02:59;;;;;;;0.68;0.68;;;8.40;99.90;;;;;;5131611;27;20194;-72
2023/09/24 02:05:35;;;;;;;0.60;0.60;;;8.40;99.90;;;;;;5111308;27;20586;-71
2023/09/24 02:08:06;;;;;;;0.85;0.85;;;8.30;99.90;;;;;;5131283;27;20477;-72
2023/09/24 02:10:33;;;;;;;0.70;0.70;;;8.30;99.90;;;;;;5130832;27;20666;-70
2023/09/24 02:13:00;;;;;;;0.60;0.60;;;8.20;99.90;;;;;;5111509;27;20202;-71
2023/09/24 02:15:26;;;;;;;0.65;0.65;;;8.20;99.90;;;;;;5130164;27;20210;-71
2023/09/24 02:17:52;;;;;;;0.50;0.50;;;8.10;99.90;;;;;;5130391;27;20206;-70
2023/09/24 02:22:50;;;;;;;0.60;0.60;;;8.10;99.90;;;;;;5130732;27;20199;-71
2023/09/24 02:25:18;;;;;;;0.60;0.60;;;8.00;99.90;;;;;;5110545;27;20195;-72
2023/09/24 02:27:44;;;;;;;0.70;0.70;;;8.00;99.90;;;;;;5129101;27;20272;-70
2023/09/24 02:30:13;;;;;;;0.70;0.70;;;7.90;99.90;;;;;;5130512;27;20370;-71
2023/09/24 02:32:40;;;;;;;0.70;0.70;;;8.00;99.90;;;;;;5110431;27;20290;-71
2023/09/24 02:35:13;;;;;;;0.70;0.70;;;8.00;99.90;;;;;;5110988;27;20678;-70
2023/09/24 02:37:50;;;;;;;0.57;0.57;;;8.00;99.90;;;;;;5129908;27;20225;-70
2023/09/24 02:42:47;;;;;;;0.60;0.60;;;8.00;99.90;;;;;;5129978;27;20198;-71
2023/09/24 02:45:15;;;;;;;0.60;0.60;;;8.00;99.90;;;;;;5110262;27;20416;-70
2023/09/24 02:47:42;;;;;;;0.52;0.52;;;8.00;99.90;;;;;;5129585;27;20203;-70
2023/09/24 02:50:08;;;;;;;0.60;0.60;;;8.00;99.90;;;;;;5129720;27;20683;-71
2023/09/24 02:52:35;;;;;;;0.50;0.50;;;7.90;99.90;;;;;;5129666;27;20199;-70
2023/09/24 02:55:03;;;;;;;0.60;0.60;;;8.00;99.90;;;;;;5129522;27;20682;-70
2023/09/24 02:57:29;;;;;;;0.70;0.70;;;8.00;99.90;;;;;;5129085;27;20230;-70
2023/09/24 02:59:57;;;;;;;0.68;0.68;;;8.00;99.90;;;;;;5129125;27;20297;-70
2023/09/24 03:02:23;;;;;;;0.60;0.60;;;8.00;99.90;;;;;;5128492;27;20698;-71
2023/09/24 03:04:50;;;;;;;0.60;0.60;;;7.90;99.90;;;;;;5129637;27;20199;-71
2023/09/24 03:07:16;;;;;;;0.60;0.60;;;7.90;99.90;;;;;;5129136;27;20195;-70
2023/09/24 03:09:41;;;;;;;0.60;0.60;;;7.80;99.90;;;;;;5129409;27;20688;-72
2023/09/24 03:12:07;;;;;;;0.60;0.60;;;7.60;99.90;;;;;;5129461;27;20559;-72
2023/09/24 03:14:33;;;;;;;0.60;0.60;;;7.60;99.90;;;;;;5128774;27;20203;-72
2023/09/24 03:16:59;;;;;;;0.70;0.70;;;7.60;99.90;;;;;;5129152;27;20190;-73
2023/09/24 03:19:25;;;;;;;0.70;0.70;;;7.50;99.90;;;;;;5128722;27;20198;-71
2023/09/24 03:21:50;;;;;;;0.60;0.60;;;7.40;99.90;;;;;;5129335;27;20614;-70
2023/09/24 03:24:16;;;;;;;0.60;0.60;;;7.30;99.90;;;;;;5129183;27;20197;-71
2023/09/24 03:26:42;;;;;;;0.60;0.60;;;7.30;99.90;;;;;;5109559;27;20293;-70
2023/09/24 03:29:08;;;;;;;0.60;0.60;;;7.20;99.90;;;;;;5109350;27;20290;-71
2023/09/24 03:31:34;;;;;;;0.47;0.47;;;7.20;99.90;;;;;;5128863;27;20199;-70
2023/09/24 03:34:00;;;;;;;0.70;0.70;;;7.10;99.90;;;;;;5128719;27;20195;-71
2023/09/24 03:36:25;;;;;;;0.80;0.80;;;7.10;99.90;;;;;;5128625;27;20194;-72
2023/09/24 03:38:51;;;;;;;0.60;0.60;;;7.10;99.90;;;;;;5128701;27;20238;-71
2023/09/24 03:41:17;;;;;;;0.60;0.60;;;7.00;99.90;;;;;;5127879;27;20259;-70
2023/09/24 03:43:42;;;;;;;1.63;1.40;;;7.00;99.90;;;;;;5128620;27;20198;-71
2023/09/24 03:46:11;;;;;;;0.43;0.43;;;6.90;99.90;;;;;;5090495;28;20285;-70
2023/09/24 03:48:37;;;;;;;0.60;0.60;;;7.00;99.90;;;;;;5107858;28;20237;-70
2023/09/24 03:51:03;;;;;;;0.68;0.68;;;7.00;99.90;;;;;;5108073;28;20204;-71
2023/09/24 03:53:28;;;;;;;0.60;0.60;;;7.00;99.90;;;;;;5107932;28;20199;-70
2023/09/24 03:55:54;;;;;;;0.70;0.70;;;7.00;99.90;;;;;;5107946;28;20199;-72
2023/09/24 03:58:20;;;;;;;0.60;0.60;;;7.20;99.90;;;;;;5108061;28;20203;-71
2023/09/24 04:00:46;;;;;;;0.50;0.50;;;7.10;99.90;;;;;;5107955;28;20199;-71
2023/09/24 04:03:14;;;;;;;0.45;0.45;;;7.10;99.90;;;;;;5108114;28;20196;-73
2023/09/24 04:05:39;;;;;;;0.70;0.70;;;7.00;99.90;;;;;;5089350;28;21184;-70
2023/09/24 04:08:05;;;;;;;0.60;0.60;;;6.90;99.90;;;;;;5108260;28;20286;-70
2023/09/24 04:10:32;;;;;;;0.60;0.60;;;6.80;99.90;;;;;;5107369;28;20199;-72
2023/09/24 04:12:59;;;;;;;0.70;0.70;;;6.80;99.90;;;;;;5107476;28;20203;-70
2023/09/24 04:15:27;;;;;;;0.60;0.60;;;6.70;99.90;;;;;;5107144;28;20196;-71
2023/09/24 04:17:56;;;;;;;0.60;0.60;;;6.70;99.90;;;;;;5107712;28;20207;-71
2023/09/24 04:20:22;;;;;;;0.60;0.60;;;6.60;99.90;;;;;;5107467;28;20612;-71
2023/09/24 04:22:49;;;;;;;0.70;0.70;;;6.60;99.90;;;;;;5107741;28;20203;-72
2023/09/24 04:25:23;;;;;;;0.60;0.60;;;6.60;99.90;;;;;;5106740;28;20199;-71
2023/09/24 04:27:50;;;;;;;0.63;0.63;;;6.50;99.90;;;;;;5107671;28;20191;-71
2023/09/24 04:30:16;;;;;;;0.60;0.60;;;6.50;99.90;;;;;;5107653;28;20196;-73
2023/09/24 04:32:53;;;;;;;0.60;0.60;;;6.50;99.90;;;;;;5107632;28;20213;-73
2023/09/24 04:35:19;;;;;;;0.60;0.60;;;6.50;99.90;;;;;;5107911;28;20194;-73
2023/09/24 04:37:46;;;;;;;0.60;0.60;;;6.60;99.90;;;;;;5107625;28;20586;-73
2023/09/24 04:40:15;;;;;;;0.70;0.70;;;6.50;99.90;;;;;;5107417;28;20215;-73
2023/09/24 04:42:41;;;;;;;0.70;0.70;;;6.60;99.90;;;;;;5107588;28;20206;-73
2023/09/24 04:45:10;;;;;;;0.50;0.50;;;6.50;99.90;;;;;;5110032;28;20227;-73
2023/09/24 04:47:36;;;;;;;0.60;0.60;;;6.50;99.90;;;;;;5109788;28;20202;-73
2023/09/24 04:50:02;;;;;;;0.50;0.50;;;6.50;99.90;;;;;;5113146;28;20796;-73
2023/09/24 04:52:28;;;;;;;0.60;0.60;;;6.40;99.90;;;;;;5094435;28;20203;-73
2023/09/24 04:54:54;;;;;;;0.68;0.68;;;6.40;99.90;;;;;;5112035;28;20221;-73
2023/09/24 04:57:20;;;;;;;0.60;0.60;;;6.50;99.90;;;;;;5110137;28;20293;-73
2023/09/24 04:59:46;;;;;;;0.60;0.60;;;6.60;99.90;;;;;;5114782;28;20278;-73
2023/09/24 05:02:12;;;;;;;0.63;0.63;;;6.60;99.90;;;;;;5115048;28;20203;-73
2023/09/24 05:04:37;;;;;;;0.50;0.50;;;6.60;99.90;;;;;;5094592;28;20589;-73
2023/09/24 05:07:03;;;;;;;0.50;0.50;;;6.60;99.90;;;;;;5111692;28;20743;-73
2023/09/24 05:09:30;;;;;;;0.60;0.60;;;6.50;99.90;;;;;;5109417;28;20224;-73
2023/09/24 05:11:55;;;;;;;0.60;0.60;;;6.50;99.90;;;;;;5110283;28;20923;-73
2023/09/24 05:14:21;;;;;;;0.40;0.40;;;6.50;99.90;;;;;;5112832;28;20204;-73
2023/09/24 05:16:50;;;;;;;0.63;0.63;;;6.60;99.90;;;;;;5095606;28;20200;-73
2023/09/24 05:19:16;;;;;;;0.52;0.52;;;6.60;99.90;;;;;;5112848;28;20202;-73
2023/09/24 05:21:42;;;;;;;0.43;0.43;;;6.70;99.90;;;;;;5114804;27;20277;-73
2023/09/24 05:24:08;;;;;;;0.60;0.60;;;6.80;99.90;;;;;;5118161;27;20244;-73
2023/09/24 05:26:34;;;;;;;0.60;0.60;;;6.90;99.90;;;;;;5116882;27;20195;-73
2023/09/24 05:28:59;;;;;;;0.60;0.60;;;6.90;99.90;;;;;;5117857;27;20700;-75
2023/09/24 05:31:25;;;;;;;0.52;0.52;;;7.00;99.90;;;;;;5096039;27;20290;-74
2023/09/24 05:33:50;;;;;;;0.60;0.60;;;7.20;99.90;;;;;;5116292;27;20199;-74
2023/09/24 05:36:22;;;;;;;0.80;0.80;;;7.30;99.90;;;;;;5116060;27;20217;-75
2023/09/24 05:38:47;;;;;;;0.50;0.50;;;7.40;99.90;;;;;;5099206;27;20285;-71
2023/09/24 05:41:13;;;;;;;0.50;0.50;;;7.50;99.90;;;;;;5097481;27;20294;-71
2023/09/24 05:43:44;;;;;;;0.55;0.55;;;7.60;99.90;;;;;;5116629;27;20256;-71
2023/09/24 05:46:14;;;;;;;0.60;0.60;;;7.80;99.90;;;;;;5111383;27;20265;-72
2023/09/24 05:48:40;;;;;;;0.60;0.60;;;7.80;99.90;;;;;;5113150;27;20191;-72
2023/09/24 05:51:07;;;;;;;0.40;0.40;;;7.90;99.90;;;;;;5112772;27;20199;-70
2023/09/24 05:53:33;;;;;;;0.55;0.55;;;8.00;99.90;;;;;;5114779;27;20221;-71
2023/09/24 05:56:00;;;;;;;0.45;0.45;;;8.10;99.90;;;;;;5110680;27;20274;-71
2023/09/24 05:58:26;;;;;;;0.50;0.50;;;8.20;99.90;;;;;;5112619;27;20245;-72
2023/09/24 06:00:55;;;;;;;0.60;0.60;;;8.30;99.90;;;;;;5112225;27;20218;-71
2023/09/24 06:03:21;;;;;;;0.50;0.50;;;8.30;99.90;;;;;;5113191;27;20274;-70
2023/09/24 06:05:47;;;;;;;0.60;0.60;;;8.30;99.90;;;;;;5112423;27;20282;-71
2023/09/24 06:08:13;;;;;;;0.55;0.55;;;8.40;99.90;;;;;;5112356;27;20199;-70
2023/09/24 06:10:45;;;;;;;0.40;0.40;;;8.50;99.90;;;;;;5111504;27;20195;-70
2023/09/24 06:13:15;;;;;;;0.50;0.50;;;8.50;99.90;;;;;;5096011;27;20200;-70
2023/09/24 06:15:44;;;;;;;1.98;1.75;;;8.60;99.90;;;;;;5112996;27;20199;-73
2023/09/24 06:18:11;;;;;;;0.50;0.50;;;8.70;99.90;;;;;;5111262;27;20599;-71
2023/09/24 06:20:38;;;;;;;0.60;0.60;;;8.80;99.90;;;;;;5111714;27;20207;-71
2023/09/24 06:23:04;;;;;;;0.60;0.60;;;8.80;99.90;;;;;;5113797;27;20245;-71
2023/09/24 06:25:29;;;;;;;0.60;0.60;;;9.00;99.90;;;;;;5113566;27;20196;-71
2023/09/24 06:27:56;;;;;;;0.50;0.50;;;9.10;99.90;;;;;;5113097;27;20199;-71
2023/09/24 06:30:22;;;;;;;0.60;0.60;;;9.20;99.90;;;;;;5111968;27;20204;-70
2023/09/24 06:32:47;;;;;;;0.60;0.60;;;9.20;99.90;;;;;;5093013;27;20723;-70
2023/09/24 06:35:13;;;;;;;0.50;0.50;;;9.30;99.90;;;;;;5109667;27;20569;-72
2023/09/24 06:37:39;;;;;;;0.52;0.52;;;9.40;99.90;;;;;;5111729;27;20198;-70
2023/09/24 06:40:05;;;;;;;0.52;0.52;;;9.50;99.90;;;;;;5112860;27;20223;-71
2023/09/24 06:42:31;;;;;;;0.70;0.70;;;9.50;99.90;;;;;;5115487;27;20279;-70
2023/09/24 06:44:57;;;;;;;0.50;0.50;;;9.60;99.90;;;;;;5120828;27;20219;-70
2023/09/24 06:47:22;;;;;;;0.50;0.50;;;9.70;99.90;;;;;;5130205;27;20653;-71
2023/09/24 06:49:52;;;;;;;0.50;0.50;;;9.80;99.90;;;;;;5130173;27;20199;-73
2023/09/24 06:52:18;;;;;;;0.60;0.60;;;9.90;99.90;;;;;;5130250;27;20199;-72
2023/09/24 06:54:43;;;;;;;0.60;0.60;;;10.00;99.90;;;;;;5130199;27;20206;-73
2023/09/24 06:57:09;;;;;;;0.70;0.70;;;10.10;99.90;;;;;;5130253;27;20201;-73
2023/09/24 06:59:35;;;;;;;0.50;0.50;;;10.20;99.90;;;;;;5129760;27;20289;-73
2023/09/24 07:02:00;;;;;;;0.60;0.60;;;10.30;99.90;;;;;;5111466;27;20244;-72
2023/09/24 07:04:26;;;;;;;0.60;0.60;;;10.40;99.90;;;;;;5128780;27;20194;-73
2023/09/24 07:06:53;;;;;;;0.60;0.60;;;10.50;99.90;;;;;;5109662;27;20203;-73
2023/09/24 07:09:18;;;;;;;0.70;0.70;;;10.50;99.90;;;;;;5109985;27;20217;-73
2023/09/24 07:11:44;;;;;;;0.50;0.50;;;10.60;99.90;;;;;;5129538;27;20557;-73
2023/09/24 07:14:10;;;;;;;0.50;0.50;;;10.70;99.90;;;;;;5129674;27;20195;-73
2023/09/24 07:16:36;;;;;;;0.60;0.60;;;10.80;99.90;;;;;;5129317;27;20195;-73
2023/09/24 07:19:02;;;;;;;0.50;0.50;;;10.90;99.90;;;;;;5129156;27;20947;-72
2023/09/24 07:21:29;;;;;;;0.60;0.60;;;11.10;99.90;;;;;;5128828;27;20206;-73
2023/09/24 07:23:57;;;;;;;3.33;1.40;;;11.20;99.90;;;;;;5108633;27;20628;-73
2023/09/24 07:26:23;;;;;;;0.60;0.60;;;11.40;99.90;;;;;;5128128;27;20310;-72
2023/09/24 07:28:49;;;;;;;0.40;0.40;;;11.60;99.90;;;;;;5128237;27;20197;-72
2023/09/24 07:31:16;;;;;;;0.60;0.60;;;11.70;99.90;;;;;;5128239;27;20191;-73
2023/09/24 07:33:42;;;;;;;0.60;0.60;;;11.80;99.90;;;;;;5109295;27;20674;-73
2023/09/24 07:36:09;;;;;;;0.70;0.70;;;11.90;99.90;;;;;;5128096;27;20214;-73
2023/09/24 07:38:35;;;;;;;0.60;0.60;;;12.10;99.90;;;;;;5128340;27;20270;-73
2023/09/24 07:41:01;;;;;;;0.50;0.50;;;12.20;99.90;;;;;;5128106;27;20271;-73
2023/09/24 07:43:27;;;;;;;0.60;0.60;;;12.40;99.90;;;;;;5128079;27;20194;-73
2023/09/24 07:45:53;;;;;;;0.50;0.50;;;12.30;99.90;;;;;;5113499;27;20238;-73
2023/09/24 07:48:19;;;;;;;0.50;0.50;;;12.30;99.90;;;;;;5111865;27;20199;-73
2023/09/24 07:50:53;;;;;;;0.50;0.50;;;12.40;99.90;;;;;;5097599;27;20199;-73
2023/09/24 07:53:19;;;;;;;0.50;0.50;;;12.50;99.90;;;;;;5113451;27;20195;-73
2023/09/24 07:55:45;;;;;;;0.50;0.50;;;12.70;99.90;;;;;;5110206;27;20196;-73
2023/09/24 07:58:11;;;;;;;0.60;0.60;;;12.70;99.90;;;;;;5111134;27;20203;-73
2023/09/24 08:00:37;;;;;;;0.60;0.60;;;12.80;99.90;;;;;;5114364;27;20245;-73
2023/09/24 08:03:03;;;;;;;0.50;0.50;;;12.90;99.90;;;;;;5113833;27;20226;-74
2023/09/24 08:05:29;;;;;;;0.50;0.50;;;12.90;99.90;;;;;;5113365;27;20634;-73
2023/09/24 08:07:56;;;;;;;0.50;0.50;;;13.00;99.90;;;;;;5115763;27;20207;-73
2023/09/24 08:10:21;;;;;;;0.50;0.50;;;13.00;99.90;;;;;;5114266;27;20195;-73
2023/09/24 08:12:47;;;;;;;0.50;0.50;;;13.00;99.90;;;;;;5113915;27;20206;-73
2023/09/24 08:15:15;;;;;;;2.75;0.95;;;13.10;99.90;;;;;;5112406;27;20202;-73
2023/09/24 08:17:41;;;;;;;0.45;0.45;;;13.30;99.90;;;;;;5114081;27;20202;-73
2023/09/24 08:20:07;;;;;;;0.50;0.50;;;13.40;99.90;;;;;;5096770;28;20211;-73
2023/09/24 08:22:33;;;;;;;0.40;0.40;;;13.60;99.90;;;;;;5116847;27;20274;-73
2023/09/24 08:24:58;;;;;;;0.50;0.50;;;13.60;99.90;;;;;;5109476;27;20265;-73
2023/09/24 08:27:24;;;;;;;0.50;0.50;;;13.80;99.90;;;;;;5111491;27;20226;-73
2023/09/24 08:29:53;;;;;;;0.40;0.40;;;14.00;99.90;;;;;;5112161;27;20282;-73
2023/09/24 08:32:19;;;;;;;0.40;0.40;;;14.10;99.90;;;;;;5111580;27;20208;-74
2023/09/24 08:34:44;;;;;;;0.40;0.40;;;14.20;99.90;;;;;;5110541;27;20343;-74
2023/09/24 08:37:10;;;;;;;0.40;0.40;;;14.30;99.90;;;;;;5094118;27;20585;-74
2023/09/24 08:39:35;;;;;;;0.50;0.50;;;14.50;99.90;;;;;;5094863;28;20712;-73
2023/09/24 08:42:02;;;;;;;0.40;0.40;;;14.40;99.90;;;;;;5113710;27;20198;-73
2023/09/24 08:44:29;;;;;;;0.45;0.45;;;14.10;99.90;;;;;;5103311;28;20233;-73
2023/09/24 08:46:55;;;;;;;0.77;0.77;;;14.00;99.90;;;;;;5107633;28;20196;-72
2023/09/24 08:49:21;;;;;;;0.55;0.55;;;14.10;99.90;;;;;;5103999;28;20202;-73
2023/09/24 08:51:49;;;;;;;0.40;0.40;;;14.40;99.90;;;;;;5086565;28;20212;-73
2023/09/24 08:54:17;;;;;;;0.50;0.50;;;14.80;99.90;;;;;;5103081;28;20211;-74
2023/09/24 08:56:43;;;;;;;0.40;0.40;;;14.90;99.90;;;;;;5105923;28;20252;-73
2023/09/24 08:59:08;;;;;;;0.40;0.40;;;15.10;99.90;;;;;;5094444;28;20207;-73
2023/09/24 09:01:35;;;;;;;0.40;0.40;;;15.10;99.90;;;;;;5111556;28;20187;-72
2023/09/24 09:04:01;;;;;;;0.40;0.40;;;15.10;99.90;;;;;;5094600;28;20199;-73
2023/09/24 09:06:36;;;;;;;0.40;0.40;;;15.30;99.90;;;;;;5111563;28;20188;-73
2023/09/24 09:09:02;;;;;;;0.40;0.40;;;15.60;99.90;;;;;;5094793;28;20629;-73
2023/09/24 09:11:42;;;;;;;0.45;0.45;;;15.70;99.90;;;;;;5093209;28;20206;-71
2023/09/24 09:14:11;;;;;;;0.40;0.40;;;15.50;99.90;;;;;;5111205;28;20191;-71
2023/09/24 09:16:59;;;;;;;0.40;0.40;;;15.60;99.90;;;;;;5109825;28;20199;-71
2023/09/24 09:19:45;;;;;;;0.40;0.40;;;15.60;99.90;;;;;;5095115;27;20707;-70
2023/09/24 09:22:22;;;;;;;0.40;0.40;;;15.70;99.90;;;;;;5110262;27;20690;-71
2023/09/24 09:25:00;;;;;;;0.40;0.40;;;15.80;99.90;;;;;;5108688;27;20200;-71
2023/09/24 09:27:43;;;;;;;0.32;0.32;;;16.00;99.90;;;;;;5087394;27;20244;-70
2023/09/24 09:30:19;;;;;;;0.40;0.40;;;16.30;99.90;;;;;;5108826;27;20196;-71
2023/09/24 09:32:46;;;;;;;0.40;0.40;;;16.50;99.90;;;;;;5111137;28;20187;-75
2023/09/24 09:35:14;;;;;;;0.40;0.40;;;16.50;99.90;;;;;;5110942;28;20629;-73
2023/09/24 09:37:41;;;;;;;0.38;0.38;;;16.60;99.90;;;;;;5111912;27;20206;-71
2023/09/24 09:40:09;;;;;;;0.45;0.45;;;16.60;99.90;;;;;;5106571;27;20215;-72
2023/09/24 09:42:36;;;;;;;0.50;0.50;;;16.90;99.90;;;;;;5110174;28;20655;-73
2023/09/24 09:45:07;;;;;;;0.57;0.57;;;17.30;99.90;;;;;;5120907;27;20660;-73
2023/09/24 09:47:37;;;;;;;0.45;0.45;;;17.30;99.90;;;;;;5130890;27;20692;-73
2023/09/24 09:50:04;;;;;;;0.30;0.30;;;17.40;99.90;;;;;;5130705;27;20262;-72
2023/09/24 09:52:43;;;;;;;0.30;0.30;;;17.40;99.90;;;;;;5131112;27;20218;-72
2023/09/24 09:55:09;;;;;;;0.47;0.47;;;17.60;99.90;;;;;;5131250;27;20681;-72
2023/09/24 09:57:35;;;;;;;0.82;0.40;;;17.80;99.90;;;;;;5130911;27;20198;-72
2023/09/24 10:00:10;;;;;;;0.30;0.30;;;17.70;99.90;;;;;;5130611;27;20203;-70
2023/09/24 10:02:39;;;;;;;0.30;0.30;;;17.80;99.90;;;;;;5111391;27;20721;-73
2023/09/24 10:05:06;;;;;;;0.30;0.30;;;17.80;99.90;;;;;;5111173;27;20685;-73
2023/09/24 10:07:39;;;;;;;0.30;0.30;;;17.90;99.90;;;;;;5130223;27;20194;-74
2023/09/24 10:10:30;;;;;;;0.30;0.30;;;17.90;99.90;;;;;;5130776;27;20561;-72
2023/09/24 10:12:56;;;;;;;0.40;0.40;;;17.90;99.90;;;;;;5130370;27;20218;-73
2023/09/24 10:15:31;;;;;;;0.20;0.20;;;18.10;99.90;;;;;;5130844;27;20210;-72
2023/09/24 10:18:19;;;;;;;0.20;0.20;;;18.30;99.90;;;;;;5131048;27;20197;-72
2023/09/24 10:20:53;;;;;;;0.30;0.30;;;18.60;99.90;;;;;;5130660;27;20214;-75
2023/09/24 10:23:31;;;;;;;0.20;0.20;;;18.70;99.90;;;;;;5130523;27;20203;-76
2023/09/24 10:26:05;;;;;;;0.30;0.30;;;18.70;99.90;;;;;;5130595;27;20616;-75
2023/09/24 10:28:50;;;;;;;0.45;0.45;;;18.60;99.90;;;;;;5130267;27;20193;-74
2023/09/24 10:31:21;;;;;;;0.35;0.35;;;18.60;99.90;;;;;;5110763;27;20198;-75
2023/09/24 10:33:52;;;;;;;0.25;0.25;;;18.70;99.90;;;;;;5130954;27;20230;-76
2023/09/24 10:36:27;;;;;;;0.30;0.30;;;19.00;99.90;;;;;;5130034;27;20198;-76
2023/09/24 10:39:08;;;;;;;0.20;0.20;;;19.40;99.90;;;;;;5130329;27;20208;-75
2023/09/24 10:41:35;;;;;;;0.20;0.20;;;19.80;99.90;;;;;;5109472;27;20809;-77
2023/09/24 10:44:20;;;;;;;0.30;0.30;;;19.80;99.90;;;;;;5130068;27;20195;-76
2023/09/24 10:46:46;;;;;;;0.20;0.20;;;19.70;99.90;;;;;;5130030;27;20201;-74
2023/09/24 10:49:21;;;;;;;0.30;0.30;;;19.60;99.90;;;;;;5130020;27;20250;-75
2023/09/24 10:52:01;;;;;;;0.30;0.30;;;19.30;99.90;;;;;;5129992;27;20198;-75
2023/09/24 10:54:27;;;;;;;0.30;0.30;;;19.10;99.90;;;;;;5129761;27;20206;-78
2023/09/24 10:56:53;;;;;;;0.57;0.47;;;19.30;99.90;;;;;;5110197;27;20214;-77
2023/09/24 10:59:35;;;;;;;0.30;0.30;;;19.50;99.90;;;;;;5110234;27;20198;-76
2023/09/24 11:02:17;;;;;;;0.30;0.30;;;19.60;99.90;;;;;;5129421;27;20198;-76
2023/09/24 11:04:43;;;;;;;0.15;0.15;;;19.80;99.90;;;;;;5129266;27;20646;-76
2023/09/24 11:07:10;;;;;;;0.20;0.20;;;19.90;99.90;;;;;;5110550;27;20205;-76
2023/09/24 11:09:36;;;;;;;0.20;0.20;;;19.90;99.90;;;;;;5110006;27;20199;-75
2023/09/24 11:12:08;;;;;;;0.30;0.30;;;20.20;99.90;;;;;;5129719;27;20250;-75
2023/09/24 11:14:34;;;;;;;0.20;0.20;;;19.60;99.90;;;;;;5128971;27;20222;-74
2023/09/24 11:17:00;;;;;;;0.20;0.20;;;19.30;99.90;;;;;;5109610;27;20535;-78
2023/09/24 11:19:45;;;;;;;0.30;0.30;;;19.40;99.90;;;;;;5109281;27;20261;-78
2023/09/24 11:22:25;;;;;;;0.45;0.45;;;19.80;99.90;;;;;;5130101;27;20195;-79
2023/09/24 11:25:11;;;;;;;0.40;0.40;;;20.50;99.90;;;;;;5110097;27;20202;-77
2023/09/24 11:27:51;;;;;;;7.10;1.95;;;20.50;99.90;;;;;;5129511;27;20202;-77
2023/09/24 11:30:18;;;;;;;0.20;0.20;;;20.10;99.90;;;;;;5132381;27;20546;-78
2023/09/24 11:32:45;;;;;;;1.40;0.52;;;19.70;99.90;;;;;;5129545;27;20395;-79
2023/09/24 11:35:15;;;;;;;0.35;0.35;;;19.90;99.90;;;;;;5129876;27;20866;-78
2023/09/24 11:37:57;;;;;;;2.33;1.35;;;20.20;99.90;;;;;;5109731;27;20207;-81
2023/09/24 11:40:36;;;;;;;11.95;0.77;;;20.30;99.90;;;;;;5129225;27;20300;-76
2023/09/24 11:43:03;;;;;;;0.30;0.30;;;20.60;99.90;;;;;;5129625;27;20255;-77
2023/09/24 11:45:39;;;;;;;0.25;0.25;;;20.70;99.90;;;;;;5128427;27;20616;-77
2023/09/24 11:48:12;;;;;;;0.20;0.20;;;20.60;99.90;;;;;;5129360;27;20587;-76
2023/09/24 11:50:40;;;;;;;0.20;0.20;;;20.90;99.90;;;;;;5128814;27;20217;-79
2023/09/24 11:53:06;;;;;;;0.35;0.35;;;20.70;99.90;;;;;;5128911;27;20193;-76
2023/09/24 11:55:32;;;;;;;0.20;0.20;;;20.70;99.90;;;;;;5109401;27;20203;-75
2023/09/24 11:57:58;;;;;;;0.30;0.25;;;21.20;99.90;;;;;;5110456;27;20198;-77
2023/09/24 12:00:24;;;;;;;0.20;0.20;;;21.80;99.90;;;;;;5129244;27;20298;-76
2023/09/24 12:02:50;;;;;;;0.20;0.20;;;21.60;99.90;;;;;;5129929;27;20529;-77
2023/09/24 12:05:15;;;;;;;0.22;0.22;;;21.80;99.90;;;;;;5109411;27;20226;-77
2023/09/24 12:07:42;;;;;;;0.65;0.50;;;21.40;99.90;;;;;;5129007;27;20195;-78
2023/09/24 12:10:08;;;;;;;0.20;0.20;;;20.90;99.90;;;;;;5129151;27;20658;-76
2023/09/24 12:12:37;;;;;;;0.30;0.30;;;20.80;99.90;;;;;;5108602;27;20195;-78
2023/09/24 12:15:06;;;;;;;0.28;0.28;;;21.00;99.90;;;;;;5129171;27;20230;-78
2023/09/24 12:17:32;;;;;;;0.30;0.30;;;20.90;99.90;;;;;;5108585;27;20327;-76
2023/09/24 12:19:58;;;;;;;0.32;0.32;;;20.90;99.90;;;;;;5128708;27;20752;-77
2023/09/24 12:22:24;;;;;;;0.30;0.30;;;21.10;99.90;;;;;;5109929;27;20236;-77
2023/09/24 12:24:50;;;;;;;0.30;0.30;;;21.00;99.90;;;;;;5129141;27;20215;-78
2023/09/24 12:27:16;;;;;;;0.20;0.20;;;20.40;99.90;;;;;;5127654;27;20238;-78
2023/09/24 12:29:41;;;;;;;0.20;0.20;;;20.20;99.90;;;;;;5107757;28;20750;-78
2023/09/24 12:32:07;;;;;;;0.20;0.20;;;20.20;99.90;;;;;;5128201;27;20214;-77
2023/09/24 12:34:33;;;;;;;0.20;0.20;;;20.10;99.90;;;;;;5128181;27;20226;-80
2023/09/24 12:36:59;;;;;;;0.20;0.20;;;20.30;99.90;;;;;;5128348;27;20717;-80
2023/09/24 12:39:27;;;;;;;0.20;0.20;;;20.40;99.90;;;;;;5107721;27;20207;-77
2023/09/24 12:41:53;;;;;;;0.20;0.20;;;20.20;99.90;;;;;;5108124;28;20339;-77
2023/09/24 12:44:19;;;;;;;0.28;0.28;;;20.20;99.90;;;;;;5128505;27;20769;-77
2023/09/24 12:46:44;;;;;;;0.20;0.20;;;20.30;99.90;;;;;;5130433;28;20767;-78
2023/09/24 12:49:10;;;;;;;0.28;0.28;;;20.00;99.90;;;;;;5108929;28;20665;-78
2023/09/24 12:51:36;;;;;;;0.30;0.30;;;19.60;99.90;;;;;;5128859;28;20203;-79
2023/09/24 12:54:02;;;;;;;0.20;0.20;;;19.50;99.90;;;;;;5110404;28;20806;-79
2023/09/24 12:56:28;;;;;;;0.20;0.20;;;19.50;99.90;;;;;;5110268;28;20203;-78
2023/09/24 12:58:59;;;;;;;0.20;0.20;;;19.80;99.90;;;;;;5110219;28;20693;-77
2023/09/24 13:01:24;;;;;;;0.20;0.20;;;20.10;99.90;;;;;;5109321;28;20202;-77
2023/09/24 13:03:50;;;;;;;0.40;0.40;;;19.90;99.90;;;;;;5109069;28;20222;-77